Airport details for: LWSK (The Former Yugoslav Republic of Macedonia)

Metar

LWSK 111300Z 00000KT CAVOK 01/M02 Q1018 NOSIG

General details

ICAO: LWSK
IATA: SKP
Name (city): Alexander The Great
Major:
Country: The Former Yugoslav Republic of Macedonia
vACC: vACC FYR Macedonia
Description:
Scenery links:
FS9 scenery: Download
FSX/P3D scenery: Download
XP scenery:
Elevation: 781 ft.
Transition altitude: 11000 ft.
MSA: 9600 ft.
Latitude: 41.961667
Longitude: 21.621389
LWSK Charts
LWSK Notams
LWSK Online stations

Runways

Number Course Length Elevation Lat Lon ILS ILS freq ILS FAC GP
16 163° 9678ft / 2950 m 781ft 41.972303 21.617708 - - 3.0°
34 343° 9678ft / 2950 m 768ft 41.950925 21.625153 108.7 343° 3.3°